Borsbeek, Belgium
Current Conditions -  °F | °C
As of 5:20 PM on Wednesday 22 Oct 2014 (Local Time) from EBAW Reporting Station
Broken Clouds Broken Clouds  
Wind Chill: 54°   Ceiling: 4800
Heat Index: 54°   Visibility: 6mi
Dew Point: 45°   Wind: 13mph
Humidity: 72%   Direction: 300°WNW
Pressure: 30.18"   Gusts: NA
Location:  51.2°N, 4.49°E
Report Text: EBAW 221520Z 30011KT 9999 FEW022 SCT033 BKN048 12/07 Q1022 NOSIG
Loading
Personal Weather Stations






























Interactive Weather Map New forecast layout! Learn more

10-Day Weather Forecast

Advertisements
Track Severe Weather on mobile